EW3349 Weather Reports


Display with metric or nautical units.
time (UTC)temp
F
wind
direction
speed
MPH
gust
MPH
rain 1hr
in
rain 24hr
in
rain mn
in
humidity
%
barometer
mb
20240521004506 75 334 0.0 0.0 0.00 0.00 0.00 68 1009.9
20240521003500 75 334 0.0 0.0 0.00 0.00 0.00 66 1009.8
20240521002457 76 334 0.0 0.0 0.00 0.00 0.00 66 1009.8
20240521001459 76 334 0.0 0.0 0.00 0.00 0.00 65 1009.9
20240521000512 77 334 0.0 0.0 0.00 0.00 0.00 63 1009.8
20240520234338 80 334 0.0 0.0 0.00 0.00 0.00 59 1009.7
20240520233404 80 334 0.0 0.0 0.00 0.00 0.00 57 1009.6
20240520232339 82 317 0.0 0.0 0.00 0.00 0.00 55 1009.6
20240520231350 82 317 0.0 0.0 0.00 0.00 0.00 54 1009.7
20240520230338 84 356 0.0 1.0 0.00 0.00 0.00 53 1009.6
20240520224201 87 321 0.0 2.0 0.00 0.00 0.00 49 1009.5
20240520222005 89 68 0.0 0.0 0.00 0.00 0.00 46 1009.6
20240520211851 88 158 0.0 0.0 0.00 0.00 0.00 43 1009.8
20240520210824 90 171 0.0 3.0 0.00 0.00 0.00 40 1009.9
20240520205831 92 352 0.0 2.0 0.00 0.00 0.00 39 1009.8
20240520204802 92 63 0.0 0.0 0.00 0.00 0.00 37 1009.9
20240520203801 92 324 0.0 1.0 0.00 0.00 0.00 39 1010.0
20240520202755 91 347 0.0 3.0 0.00 0.00 0.00 39 1010.1
20240520201745 91 335 0.0 1.0 0.00 0.00 0.00 39 1010.2
20240520200754 90 186 0.0 3.0 0.00 0.00 0.00 40 1010.3
20240520195808 90 8 0.0 3.0 0.00 0.00 0.00 40 1010.4
20240520194818 90 123 0.0 2.0 0.00 0.00 0.00 41 1010.5
20240520193759 89 13 0.0 3.0 0.00 0.00 0.00 42 1010.5
20240520192738 89 160 0.0 3.0 0.00 0.00 0.00 42 1010.6
20240520191759 89 195 0.0 1.0 0.00 0.00 0.00 42 1010.7
20240520190725 88 17 0.0 5.0 0.00 0.00 0.00 43 1010.8
20240520185728 88 68 0.0 5.0 0.00 0.00 0.00 44 1010.9
20240520184727 88 158 0.0 0.0 0.00 0.00 0.00 45 1011.0
20240520183707 88 149 0.0 0.0 0.00 0.00 0.00 49 1011.1
20240520182715 87 25 0.0 3.0 0.00 0.00 0.00 46 1011.3
20240520175409 86 129 0.0 3.0 0.00 0.00 0.00 52 1011.5
20240520174427 86 163 0.0 2.0 0.00 0.00 0.00 48 1011.5
20240520173451 85 5 0.0 2.0 0.00 0.00 0.00 52 1011.6
20240520172419 84 164 0.0 4.0 0.00 0.00 0.00 50 1011.8
20240520171416 84 171 1.0 5.0 0.00 0.00 0.00 48 1011.8
20240520170411 84 148 0.0 5.0 0.00 0.00 0.00 54 1011.9
20240520165424 84 150 0.0 4.0 0.00 0.00 0.00 51 1012.1
20240520164400 83 175 0.0 1.0 0.00 0.00 0.00 50 1012.2
20240520161220 83 137 0.0 3.0 0.00 0.00 0.00 53 1012.4
20240520160223 81 6 0.0 3.0 0.00 0.00 0.00 53 1012.3
20240520155208 81 148 0.0 2.0 0.00 0.00 0.00 52 1012.3
20240520153046 81 164 0.0 3.0 0.00 0.00 0.00 51 1012.5
20240520152045 80 155 0.0 3.0 0.00 0.00 0.00 53 1012.5
20240520145924 78 167 0.0 1.0 0.00 0.00 0.00 54 1012.8
20240520144914 78 148 0.0 0.0 0.00 0.00 0.00 54 1012.8
20240520143908 78 179 0.0 0.0 0.00 0.00 0.00 54 1012.8
20240520142905 76 127 0.0 0.0 0.00 0.00 0.00 57 1013.0
20240520141917 76 349 0.0 2.0 0.00 0.00 0.00 57 1012.9
20240520140920 75 157 0.0 1.0 0.00 0.00 0.00 60 1013.1
20240520135905 73 352 0.0 0.0 0.00 0.00 0.00 61 1013.0
20240520134843 73 167 0.0 1.0 0.00 0.00 0.00 61 1012.9
20240520132731 72 146 0.0 2.0 0.00 0.00 0.00 63 1012.8
20240520131710 71 17 0.0 0.0 0.00 0.00 0.00 67 1013.0
20240520130650 69 92 0.0 1.0 0.00 0.00 0.00 69 1013.0
20240520125638 69 31 0.0 2.0 0.00 0.00 0.00 70 1013.0
20240520124656 68 349 0.0 1.0 0.00 0.00 0.00 73 1013.0
20240520123653 67 143 0.0 1.0 0.00 0.00 0.00 75 1013.0
20240520122645 67 154 0.0 1.0 0.00 0.00 0.00 77 1012.7
20240520121622 66 156 0.0 0.0 0.00 0.00 0.00 77 1012.6
20240520120622 66 172 0.0 0.0 0.00 0.00 0.00 77 1012.5
20240520115609 65 298 0.0 0.0 0.00 0.00 0.00 80 1012.5
20240520114548 64 314 0.0 0.0 0.00 0.00 0.00 81 1012.6
20240520113606 64 333 0.0 0.0 0.00 0.00 0.00 81 1012.6
20240520112605 63 333 0.0 0.0 0.00 0.00 0.00 82 1012.5
20240520111540 63 333 0.0 0.0 0.00 0.00 0.00 82 1012.3
20240520105443 61 160 0.0 0.0 0.00 0.00 0.00 85 1012.1
20240520104426 60 160 0.0 0.0 0.00 0.00 0.00 86 1012.1
20240520103441 60 159 0.0 0.0 0.00 0.00 0.00 87 1012.2
20240520102443 60 158 0.0 0.0 0.00 0.00 0.00 87 1012.3
20240520101451 60 158 0.0 0.0 0.00 0.00 0.00 87 1012.2
20240520100450 60 158 0.0 0.0 0.00 0.00 0.00 86 1012.2
20240520095425 60 158 0.0 0.0 0.00 0.00 0.00 86 1012.3
20240520094400 60 158 0.0 0.0 0.00 0.00 0.00 86 1012.2
20240520093330 60 158 0.0 0.0 0.00 0.00 0.00 86 1012.3
20240520092318 60 138 0.0 0.0 0.00 0.00 0.00 85 1012.0
20240520090153 61 137 0.0 0.0 0.00 0.00 0.00 85 1011.8
20240520085119 61 138 0.0 0.0 0.00 0.00 0.00 84 1011.7
20240520084136 61 138 0.0 0.0 0.00 0.00 0.00 85 1011.5
20240520082005 62 138 0.0 0.0 0.00 0.00 0.00 84 1011.1
20240520081002 62 138 0.0 0.0 0.00 0.00 0.00 84 1011.1
20240520080000 62 138 0.0 0.0 0.00 0.00 0.00 84 1011.2
20240520075002 62 174 0.0 0.0 0.00 0.00 0.00 85 1011.2
20240520074024 62 148 0.0 0.0 0.00 0.00 0.00 85 1011.3
20240520071810 62 130 0.0 0.0 0.00 0.00 0.00 86 1011.4
20240520070800 62 130 0.0 0.0 0.00 0.00 0.00 87 1011.5
20240520065741 62 130 0.0 0.0 0.00 0.00 0.00 87 1011.7
20240520064742 62 130 0.0 0.0 0.00 0.00 0.00 88 1011.7
20240520063709 61 95 0.0 0.0 0.00 0.00 0.00 88 1011.8
20240520062715 61 95 0.0 0.0 0.00 0.00 0.00 87 1011.9
20240520061710 61 95 0.0 0.0 0.00 0.00 0.00 87 1011.9
20240520055601 62 95 0.0 0.0 0.00 0.00 0.00 87 1012.0
20240520052430 62 323 0.0 0.0 0.00 0.00 0.00 86 1012.1
20240520051443 63 323 0.0 0.0 0.00 0.00 0.00 86 1012.1
20240520050427 63 323 0.0 0.0 0.00 0.00 0.00 85 1012.0
20240520044255 64 323 0.0 0.0 0.00 0.00 0.00 85 1012.0
20240520043236 64 323 0.0 0.0 0.00 0.00 0.00 84 1011.9
20240520042229 64 323 0.0 0.0 0.00 0.00 0.00 84 1011.8
20240520041156 64 323 0.0 0.0 0.00 0.00 0.00 84 1011.7
20240520040126 64 323 0.0 0.0 0.00 0.00 0.00 84 1011.7
20240520034051 64 323 0.0 0.0 0.00 0.00 0.00 84 1011.6
20240520033040 64 323 0.0 0.0 0.00 0.00 0.00 85 1011.7
20240520032050 64 323 0.0 0.0 0.00 0.00 0.00 85 1011.7
20240520031044 64 323 0.0 0.0 0.00 0.00 0.00 84 1011.6
20240520030011 64 323 0.0 0.0 0.00 0.00 0.00 84 1011.8
20240520024954 64 323 0.0 0.0 0.00 0.00 0.00 84 1011.8
20240520023938 64 323 0.0 0.0 0.00 0.00 0.00 84 1011.8
20240520022914 64 323 0.0 0.0 0.00 0.00 0.00 84 1011.7
20240520021905 64 323 0.0 0.0 0.00 0.00 0.00 83 1011.8
20240520015812 65 323 0.0 0.0 0.00 0.00 0.00 81 1011.9
20240520014748 65 323 0.0 0.0 0.00 0.00 0.00 81 1011.9
20240520013802 66 323 0.0 0.0 0.00 0.00 0.00 80 1011.6
20240520012802 66 323 0.0 0.0 0.00 0.00 0.00 80 1011.6
20240520011728 66 323 0.0 0.0 0.00 0.00 0.00 79 1011.4
20240520005519 67 323 0.0 0.0 0.00 0.00 0.00 78 1011.2